sensor_id;sensor_type;location;lat;lon;timestamp;P1;durP1;ratioP1;P2;durP2;ratioP2
40367;SDS011;26075;43.320;21.920;2023-02-28T00:00:30;50.33;;;30.50;;
40367;SDS011;26075;43.320;21.920;2023-02-28T00:05:31;49.58;;;30.92;;
40367;SDS011;26075;43.320;21.920;2023-02-28T00:10:32;56.88;;;33.42;;
40367;SDS011;26075;43.320;21.920;2023-02-28T00:15:33;54.92;;;33.78;;
40367;SDS011;26075;43.320;21.920;2023-02-28T00:20:34;51.40;;;33.15;;
40367;SDS011;26075;43.320;21.920;2023-02-28T00:37:09;48.78;;;30.80;;
40367;SDS011;26075;43.320;21.920;2023-02-28T00:42:26;46.17;;;29.60;;
40367;SDS011;26075;43.320;21.920;2023-02-28T00:47:27;46.45;;;29.30;;
40367;SDS011;26075;43.320;21.920;2023-02-28T00:52:45;46.45;;;29.65;;
40367;SDS011;26075;43.320;21.920;2023-02-28T00:57:46;48.50;;;30.40;;
40367;SDS011;26075;43.320;21.920;2023-02-28T01:20:03;42.92;;;27.20;;
40367;SDS011;26075;43.320;21.920;2023-02-28T01:25:04;44.22;;;29.35;;
40367;SDS011;26075;43.320;21.920;2023-02-28T01:30:05;44.75;;;28.75;;
40367;SDS011;26075;43.320;21.920;2023-02-28T01:35:07;43.67;;;27.67;;
40367;SDS011;26075;43.320;21.920;2023-02-28T01:40:08;41.10;;;26.48;;
40367;SDS011;26075;43.320;21.920;2023-02-28T01:51:29;37.90;;;25.85;;
40367;SDS011;26075;43.320;21.920;2023-02-28T01:56:47;47.13;;;28.90;;
40367;SDS011;26075;43.320;21.920;2023-02-28T02:02:01;47.50;;;29.43;;
40367;SDS011;26075;43.320;21.920;2023-02-28T02:13:43;44.50;;;29.42;;
40367;SDS011;26075;43.320;21.920;2023-02-28T02:23:51;41.22;;;27.30;;
40367;SDS011;26075;43.320;21.920;2023-02-28T02:40:16;40.70;;;26.67;;
40367;SDS011;26075;43.320;21.920;2023-02-28T02:50:50;41.72;;;27.27;;
40367;SDS011;26075;43.320;21.920;2023-02-28T02:55:54;40.50;;;26.67;;
40367;SDS011;26075;43.320;21.920;2023-02-28T03:01:10;41.75;;;28.20;;
40367;SDS011;26075;43.320;21.920;2023-02-28T03:06:15;40.05;;;26.70;;
40367;SDS011;26075;43.320;21.920;2023-02-28T03:11:16;42.40;;;27.23;;
40367;SDS011;26075;43.320;21.920;2023-02-28T03:38:21;42.08;;;26.52;;
40367;SDS011;26075;43.320;21.920;2023-02-28T03:43:40;42.80;;;27.00;;
40367;SDS011;26075;43.320;21.920;2023-02-28T03:48:45;42.88;;;27.15;;
40367;SDS011;26075;43.320;21.920;2023-02-28T03:54:13;43.33;;;26.67;;
40367;SDS011;26075;43.320;21.920;2023-02-28T04:04:34;38.78;;;25.10;;
40367;SDS011;26075;43.320;21.920;2023-02-28T04:09:34;34.83;;;22.67;;
40367;SDS011;26075;43.320;21.920;2023-02-28T04:14:35;37.13;;;24.42;;
40367;SDS011;26075;43.320;21.920;2023-02-28T04:19:36;40.85;;;26.35;;
40367;SDS011;26075;43.320;21.920;2023-02-28T04:24:36;43.83;;;27.45;;
40367;SDS011;26075;43.320;21.920;2023-02-28T04:35:37;44.35;;;27.30;;
40367;SDS011;26075;43.320;21.920;2023-02-28T04:46:35;47.95;;;30.92;;
40367;SDS011;26075;43.320;21.920;2023-02-28T04:51:36;53.83;;;32.50;;
40367;SDS011;26075;43.320;21.920;2023-02-28T04:56:36;51.08;;;32.17;;
40367;SDS011;26075;43.320;21.920;2023-02-28T05:13:11;53.20;;;32.22;;
40367;SDS011;26075;43.320;21.920;2023-02-28T05:18:12;45.90;;;27.88;;
40367;SDS011;26075;43.320;21.920;2023-02-28T05:23:19;46.33;;;28.13;;
40367;SDS011;26075;43.320;21.920;2023-02-28T05:28:22;49.95;;;30.33;;
40367;SDS011;26075;43.320;21.920;2023-02-28T05:44:25;61.95;;;34.00;;
40367;SDS011;26075;43.320;21.920;2023-02-28T05:49:27;55.42;;;33.70;;
40367;SDS011;26075;43.320;21.920;2023-02-28T05:54:28;57.58;;;34.90;;
40367;SDS011;26075;43.320;21.920;2023-02-28T05:59:41;20.23;;;13.38;;
40367;SDS011;26075;43.320;21.920;2023-02-28T06:04:58;57.92;;;32.85;;
40367;SDS011;26075;43.320;21.920;2023-02-28T06:09:58;55.53;;;34.58;;
40367;SDS011;26075;43.320;21.920;2023-02-28T06:14:59;59.80;;;34.80;;
40367;SDS011;26075;43.320;21.920;2023-02-28T06:20:00;56.50;;;33.80;;
40367;SDS011;26075;43.320;21.920;2023-02-28T06:25:00;58.45;;;33.60;;
40367;SDS011;26075;43.320;21.920;2023-02-28T06:30:01;56.97;;;34.78;;
40367;SDS011;26075;43.320;21.920;2023-02-28T06:35:03;62.22;;;36.83;;
40367;SDS011;26075;43.320;21.920;2023-02-28T06:40:04;63.60;;;36.47;;
40367;SDS011;26075;43.320;21.920;2023-02-28T06:45:06;68.32;;;37.72;;
40367;SDS011;26075;43.320;21.920;2023-02-28T06:50:09;67.10;;;40.15;;
40367;SDS011;26075;43.320;21.920;2023-02-28T06:55:11;68.45;;;40.78;;
40367;SDS011;26075;43.320;21.920;2023-02-28T07:00:12;66.38;;;39.88;;
40367;SDS011;26075;43.320;21.920;2023-02-28T07:05:13;63.15;;;38.38;;
40367;SDS011;26075;43.320;21.920;2023-02-28T07:10:15;70.65;;;40.22;;
40367;SDS011;26075;43.320;21.920;2023-02-28T07:15:16;62.50;;;37.92;;
40367;SDS011;26075;43.320;21.920;2023-02-28T07:20:23;67.40;;;37.75;;
40367;SDS011;26075;43.320;21.920;2023-02-28T07:25:28;64.95;;;39.00;;
40367;SDS011;26075;43.320;21.920;2023-02-28T07:30:41;71.50;;;39.93;;
40367;SDS011;26075;43.320;21.920;2023-02-28T07:35:42;72.47;;;40.33;;
40367;SDS011;26075;43.320;21.920;2023-02-28T07:40:43;73.47;;;39.88;;
40367;SDS011;26075;43.320;21.920;2023-02-28T07:45:52;73.78;;;42.50;;
40367;SDS011;26075;43.320;21.920;2023-02-28T07:50:55;76.32;;;43.95;;
40367;SDS011;26075;43.320;21.920;2023-02-28T07:56:05;75.22;;;41.47;;
40367;SDS011;26075;43.320;21.920;2023-02-28T08:01:09;74.28;;;41.30;;
40367;SDS011;26075;43.320;21.920;2023-02-28T08:06:16;73.95;;;41.95;;
40367;SDS011;26075;43.320;21.920;2023-02-28T08:11:21;72.10;;;40.83;;
40367;SDS011;26075;43.320;21.920;2023-02-28T08:16:31;73.43;;;42.42;;
40367;SDS011;26075;43.320;21.920;2023-02-28T08:27:14;73.38;;;43.95;;
40367;SDS011;26075;43.320;21.920;2023-02-28T08:37:48;75.10;;;43.13;;
40367;SDS011;26075;43.320;21.920;2023-02-28T08:43:07;82.82;;;45.83;;
40367;SDS011;26075;43.320;21.920;2023-02-28T08:48:08;78.75;;;41.95;;
40367;SDS011;26075;43.320;21.920;2023-02-28T08:53:08;80.80;;;42.58;;
40367;SDS011;26075;43.320;21.920;2023-02-28T08:58:11;78.10;;;43.42;;
40367;SDS011;26075;43.320;21.920;2023-02-28T09:03:12;88.90;;;47.22;;
40367;SDS011;26075;43.320;21.920;2023-02-28T09:08:13;83.40;;;46.47;;
40367;SDS011;26075;43.320;21.920;2023-02-28T09:13:14;76.60;;;43.92;;
40367;SDS011;26075;43.320;21.920;2023-02-28T09:23:58;77.22;;;42.17;;
40367;SDS011;26075;43.320;21.920;2023-02-28T09:39:56;85.30;;;44.65;;
40367;SDS011;26075;43.320;21.920;2023-02-28T09:44:58;87.38;;;47.22;;
40367;SDS011;26075;43.320;21.920;2023-02-28T09:55:34;82.33;;;46.27;;
40367;SDS011;26075;43.320;21.920;2023-02-28T10:11:09;75.10;;;42.65;;
40367;SDS011;26075;43.320;21.920;2023-02-28T10:16:16;76.80;;;43.83;;
40367;SDS011;26075;43.320;21.920;2023-02-28T10:21:35;81.55;;;43.08;;
40367;SDS011;26075;43.320;21.920;2023-02-28T10:31:58;72.40;;;40.47;;
40367;SDS011;26075;43.320;21.920;2023-02-28T10:43:02;76.05;;;42.25;;
40367;SDS011;26075;43.320;21.920;2023-02-28T10:48:06;63.78;;;39.13;;
40367;SDS011;26075;43.320;21.920;2023-02-28T11:09:33;77.07;;;41.63;;
40367;SDS011;26075;43.320;21.920;2023-02-28T11:20:18;64.88;;;37.30;;
40367;SDS011;26075;43.320;21.920;2023-02-28T11:25:37;66.90;;;38.90;;
40367;SDS011;26075;43.320;21.920;2023-02-28T11:30:43;70.60;;;40.03;;
40367;SDS011;26075;43.320;21.920;2023-02-28T11:35:46;69.80;;;39.78;;
40367;SDS011;26075;43.320;21.920;2023-02-28T11:51:21;62.00;;;37.83;;
40367;SDS011;26075;43.320;21.920;2023-02-28T11:56:31;57.90;;;36.70;;
40367;SDS011;26075;43.320;21.920;2023-02-28T12:07:09;64.47;;;36.70;;
40367;SDS011;26075;43.320;21.920;2023-02-28T12:23:13;67.93;;;37.92;;
40367;SDS011;26075;43.320;21.920;2023-02-28T12:28:20;67.05;;;37.72;;
40367;SDS011;26075;43.320;21.920;2023-02-28T12:39:26;64.43;;;35.90;;
40367;SDS011;26075;43.320;21.920;2023-02-28T12:45:09;68.20;;;35.90;;
40367;SDS011;26075;43.320;21.920;2023-02-28T12:50:08;57.58;;;34.53;;
40367;SDS011;26075;43.320;21.920;2023-02-28T13:17:26;58.35;;;34.83;;
40367;SDS011;26075;43.320;21.920;2023-02-28T13:22:39;63.90;;;36.42;;
40367;SDS011;26075;43.320;21.920;2023-02-28T13:27:40;59.15;;;34.45;;
40367;SDS011;26075;43.320;21.920;2023-02-28T13:32:43;57.88;;;32.45;;
40367;SDS011;26075;43.320;21.920;2023-02-28T13:37:44;60.67;;;34.40;;
40367;SDS011;26075;43.320;21.920;2023-02-28T13:42:49;65.30;;;34.10;;
40367;SDS011;26075;43.320;21.920;2023-02-28T13:47:54;64.10;;;36.17;;
40367;SDS011;26075;43.320;21.920;2023-02-28T14:09:45;55.95;;;32.17;;
40367;SDS011;26075;43.320;21.920;2023-02-28T14:19:39;60.53;;;32.10;;
40367;SDS011;26075;43.320;21.920;2023-02-28T14:25:05;56.88;;;31.25;;
40367;SDS011;26075;43.320;21.920;2023-02-28T14:40:51;51.22;;;30.63;;
40367;SDS011;26075;43.320;21.920;2023-02-28T14:46:04;52.65;;;30.42;;
40367;SDS011;26075;43.320;21.920;2023-02-28T14:51:06;49.20;;;27.70;;
40367;SDS011;26075;43.320;21.920;2023-02-28T14:56:16;49.55;;;26.45;;
40367;SDS011;26075;43.320;21.920;2023-02-28T15:01:23;46.40;;;26.47;;
40367;SDS011;26075;43.320;21.920;2023-02-28T15:06:25;48.55;;;26.17;;
40367;SDS011;26075;43.320;21.920;2023-02-28T15:11:25;45.47;;;27.00;;
40367;SDS011;26075;43.320;21.920;2023-02-28T15:16:36;51.03;;;26.00;;
40367;SDS011;26075;43.320;21.920;2023-02-28T15:21:40;55.53;;;29.75;;
40367;SDS011;26075;43.320;21.920;2023-02-28T15:26:45;61.07;;;32.33;;
40367;SDS011;26075;43.320;21.920;2023-02-28T15:31:57;61.28;;;37.95;;
40367;SDS011;26075;43.320;21.920;2023-02-28T15:37:02;28.17;;;14.32;;
40367;SDS011;26075;43.320;21.920;2023-02-28T15:42:32;12.82;;;7.93;;
40367;SDS011;26075;43.320;21.920;2023-02-28T15:47:33;13.65;;;5.72;;
40367;SDS011;26075;43.320;21.920;2023-02-28T15:52:37;11.50;;;6.65;;
40367;SDS011;26075;43.320;21.920;2023-02-28T15:57:44;20.42;;;8.27;;
40367;SDS011;26075;43.320;21.920;2023-02-28T16:02:47;15.75;;;8.48;;
40367;SDS011;26075;43.320;21.920;2023-02-28T16:07:47;11.07;;;6.28;;
40367;SDS011;26075;43.320;21.920;2023-02-28T16:13:06;15.13;;;7.82;;
40367;SDS011;26075;43.320;21.920;2023-02-28T16:18:12;14.85;;;6.78;;
40367;SDS011;26075;43.320;21.920;2023-02-28T16:23:13;17.63;;;7.22;;
40367;SDS011;26075;43.320;21.920;2023-02-28T16:28:20;11.35;;;5.80;;
40367;SDS011;26075;43.320;21.920;2023-02-28T16:33:32;15.48;;;7.65;;
40367;SDS011;26075;43.320;21.920;2023-02-28T16:38:33;12.85;;;6.28;;
40367;SDS011;26075;43.320;21.920;2023-02-28T16:43:34;11.73;;;5.97;;
40367;SDS011;26075;43.320;21.920;2023-02-28T16:48:35;18.45;;;8.10;;
40367;SDS011;26075;43.320;21.920;2023-02-28T16:53:35;20.08;;;10.77;;
40367;SDS011;26075;43.320;21.920;2023-02-28T16:58:36;9.90;;;6.30;;
40367;SDS011;26075;43.320;21.920;2023-02-28T17:03:37;10.05;;;4.50;;
40367;SDS011;26075;43.320;21.920;2023-02-28T17:08:37;11.13;;;4.05;;
40367;SDS011;26075;43.320;21.920;2023-02-28T17:13:50;10.35;;;5.93;;
40367;SDS011;26075;43.320;21.920;2023-02-28T17:18:51;9.77;;;5.13;;
40367;SDS011;26075;43.320;21.920;2023-02-28T17:24:00;7.57;;;4.57;;
40367;SDS011;26075;43.320;21.920;2023-02-28T17:29:01;10.32;;;5.25;;
40367;SDS011;26075;43.320;21.920;2023-02-28T17:34:02;11.35;;;5.47;;
40367;SDS011;26075;43.320;21.920;2023-02-28T17:45:00;18.90;;;11.57;;
40367;SDS011;26075;43.320;21.920;2023-02-28T18:00:58;39.67;;;24.80;;
40367;SDS011;26075;43.320;21.920;2023-02-28T18:05:59;42.17;;;24.08;;
40367;SDS011;26075;43.320;21.920;2023-02-28T18:11:08;40.95;;;23.77;;
40367;SDS011;26075;43.320;21.920;2023-02-28T18:22:14;40.65;;;22.67;;
40367;SDS011;26075;43.320;21.920;2023-02-28T18:50:13;42.28;;;24.55;;
40367;SDS011;26075;43.320;21.920;2023-02-28T18:55:14;43.70;;;26.80;;
40367;SDS011;26075;43.320;21.920;2023-02-28T19:00:17;46.65;;;29.77;;
40367;SDS011;26075;43.320;21.920;2023-02-28T19:05:21;56.42;;;34.35;;
40367;SDS011;26075;43.320;21.920;2023-02-28T19:15:46;37.15;;;21.55;;
40367;SDS011;26075;43.320;21.920;2023-02-28T19:20:47;37.38;;;20.45;;
40367;SDS011;26075;43.320;21.920;2023-02-28T19:25:48;35.08;;;22.13;;
40367;SDS011;26075;43.320;21.920;2023-02-28T19:36:46;32.22;;;19.85;;
40367;SDS011;26075;43.320;21.920;2023-02-28T19:41:47;37.53;;;24.15;;
40367;SDS011;26075;43.320;21.920;2023-02-28T19:52:30;26.75;;;14.82;;
40367;SDS011;26075;43.320;21.920;2023-02-28T20:03:18;19.98;;;13.90;;
40367;SDS011;26075;43.320;21.920;2023-02-28T20:08:19;26.23;;;14.18;;
40367;SDS011;26075;43.320;21.920;2023-02-28T20:13:19;25.67;;;15.23;;
40367;SDS011;26075;43.320;21.920;2023-02-28T20:24:08;27.23;;;16.08;;
40367;SDS011;26075;43.320;21.920;2023-02-28T20:29:10;26.00;;;16.90;;
40367;SDS011;26075;43.320;21.920;2023-02-28T20:45:49;22.10;;;15.50;;
40367;SDS011;26075;43.320;21.920;2023-02-28T20:51:09;28.98;;;18.23;;
40367;SDS011;26075;43.320;21.920;2023-02-28T20:56:11;30.77;;;20.63;;
40367;SDS011;26075;43.320;21.920;2023-02-28T21:07:20;39.20;;;24.67;;
40367;SDS011;26075;43.320;21.920;2023-02-28T21:18:18;37.15;;;22.50;;
40367;SDS011;26075;43.320;21.920;2023-02-28T21:23:18;39.83;;;22.77;;
40367;SDS011;26075;43.320;21.920;2023-02-28T21:28:19;35.08;;;22.65;;
40367;SDS011;26075;43.320;21.920;2023-02-28T21:33:20;35.28;;;21.27;;
40367;SDS011;26075;43.320;21.920;2023-02-28T21:38:21;29.13;;;18.40;;
40367;SDS011;26075;43.320;21.920;2023-02-28T21:43:21;29.77;;;17.58;;
40367;SDS011;26075;43.320;21.920;2023-02-28T22:04:48;49.83;;;27.38;;
40367;SDS011;26075;43.320;21.920;2023-02-28T22:15:46;47.13;;;30.40;;
40367;SDS011;26075;43.320;21.920;2023-02-28T22:20:52;47.97;;;31.73;;
40367;SDS011;26075;43.320;21.920;2023-02-28T22:25:53;56.50;;;33.10;;
40367;SDS011;26075;43.320;21.920;2023-02-28T22:36:51;52.42;;;31.83;;
40367;SDS011;26075;43.320;21.920;2023-02-28T22:41:53;53.65;;;30.70;;
40367;SDS011;26075;43.320;21.920;2023-02-28T22:46:55;53.03;;;33.10;;
40367;SDS011;26075;43.320;21.920;2023-02-28T22:51:55;50.78;;;31.08;;
40367;SDS011;26075;43.320;21.920;2023-02-28T23:02:53;45.22;;;28.20;;
40367;SDS011;26075;43.320;21.920;2023-02-28T23:08:01;50.15;;;29.83;;
40367;SDS011;26075;43.320;21.920;2023-02-28T23:19:11;43.13;;;26.55;;
40367;SDS011;26075;43.320;21.920;2023-02-28T23:30:22;47.17;;;28.98;;
40367;SDS011;26075;43.320;21.920;2023-02-28T23:35:23;53.67;;;31.85;;
40367;SDS011;26075;43.320;21.920;2023-02-28T23:40:24;48.25;;;29.55;;
40367;SDS011;26075;43.320;21.920;2023-02-28T23:45:24;45.70;;;28.35;;
40367;SDS011;26075;43.320;21.920;2023-02-28T23:50:26;47.50;;;27.90;;
40367;SDS011;26075;43.320;21.920;2023-02-28T23:55:27;49.53;;;30.60;;
